Four Mile Corner, Arkansas
Current Conditions -  °F | °C
As of 2:03 AM on Sunday 26 Oct 2014 (Local Time) from KSRC Reporting Station
Haze Haze  
Wind Chill: 61°   Ceiling: Unl
Heat Index: 61°   Visibility: 0.75mi
Dew Point: 59°   Wind: 0mph
Humidity: 94%   Direction: NA
Pressure: 30.02"   Gusts: NA
Location:  34.9712°N, 91.571°W
Report Text: KSRC 260703Z AUTO 00000KT 3/4SM BR CLR 16/15 A3002 RMK AO2 TSNO
Loading
Personal Weather Stations






























Interactive Weather Map
Tropical Storm Tracking
New forecast layout! Learn more

10-Day Weather Forecast

Advertisements
Track Severe Weather on mobile